Awosting, New Jersey
Current Conditions -  °F | °C
As of 12:53 PM on Sunday 21 Dec 2014 (Local Time) from KFWN Reporting Station
Overcast Overcast  
Wind Chill: 33°   Ceiling: 1700
Heat Index: 33°   Visibility: 10mi
Dew Point: 27°   Wind: 0mph
Humidity: 78%   Direction: NA
Pressure: 30.28"   Gusts: NA
Location:  41.1652°N, 74.3769°W
Report Text: KFWN 211753Z AUTO 00000KT 10SM OVC017 01/M03 A3028 RMK AO2 SLP259 T00061028 10006 21022 58012
Loading
Personal Weather Stations






























Interactive Weather Map New forecast layout! Learn more

10-Day Weather Forecast

Advertisements
Track Severe Weather on mobile